Archie, LA

12:15 PM CDT on May 24, 2015 (GMT -0500)
Hardy-Anders-Adams County | | Change Station
CLOSE
Current Station
Airport
Location: Natchez,
Elevation: 272 ft
Nearby Weather Stations

Elev 272 ft 31.62 °N, 91.30 °W | Updated 20 minutes ago

Mostly Cloudy
Mostly Cloudy
84 °F
Feels Like 91 °F
N
15
Wind Variable Wind from SSE
Gusts 21 mph

Today
High -- | Low -- °F
--% Chance of Precip.
Yesterday
High -- | Low -- °F
Precip. -- in
6:05 AM 8:02 PM
Waxing Crescent, 40% visible
Pressure 30.06 in
Visibility 10.0 miles
Clouds Scattered Clouds 2800 ft
Mostly Cloudy 3300 ft
Mostly Cloudy 4000 ft
Heat Index 91 °F
Dew Point 73 °F
Humidity 70%
Rainfall 0.00 in
Snow Depth Not available.
UV 6 out of 12
Pollen 4.50 out of 12
Air Quality Not available.
Flu Activity Sporadic
METAR KHEZ 241655Z AUTO 16013G18KT 10SM SCT028 BKN033 BKN040 29/23 A3006 RMK AO1

More Conditions Fewer Conditions

Pressure 30.06 in
Visibility 10.0 miles
Clouds Scattered Clouds 2800 ft
Mostly Cloudy 3300 ft
Mostly Cloudy 4000 ft
Heat Index 91 °F
Dew Point 73 °F
Humidity 70%
Rainfall 0.00 in
Snow Depth Not available.
UV 6 out of 12
Pollen 4.50 out of 12
Air Quality Not available.
Flu Activity Sporadic
METAR KHEZ 241655Z AUTO 16013G18KT 10SM SCT028 BKN033 BKN040 29/23 A3006 RMK AO1

More Conditions Fewer Conditions

10-Day Weather Forecast

Almanac

Astronomy

May. 24, 2015 Rise Set
Actual Time
Civil Twilight
Nautical Twilight
Astronomical Twilight
Moon
Length of Visible Light
Length of Day
Tomorrow will be .
, % of the Moon is Illuminated

Today's Extremes

State Highs State Lows

Community

WunderPhotos

Upload Photos

1,823,799 photos uploaded!

WunderBlogs® & News

Nearby

Air Quality

  Air Quality AQ Index Pollutant
Not available.

Snow Depth

Station Depth Elevation

Earthquake Activity

City Distance Mag. Time & Date
Minimum magnitude displayed is 2.5.

Coastal Water Temperatures

Place Temperature

Stations

Nearby Weather Stations

Station Location Temp. Windchill Dew Point Humidity Wind Precip. Elev Updated Type